Airport View

Enter AWOS ICAO identifier for current METAR.

ex. KFNL

KAEJ 221210Z AUTO 07004KT 10SM CLR M02/M04 A3025 RMK AO2 T10251041

22 Apr 2018 12:14

Frequency: 132.925

Phone: 719-395-2599

Other Area AWOS: K7BM - KANK - KMYP - KLXV

TAF KASE 221122Z 2212/2312 21006KT P6SM SKC FM221800 34004KT P6SM SKC FM230200 21006KT P6SM FEW250